125th St. Pier

125th St. Pier

Physical/Chemical Data

Physical, chemical and biological properties of the surface water that are measured continuously while the patrol boat is underway.

Entero Count (fecal indicator) and Rainfall

87 Samples taken

Sample Date [i] Enterococcus Count

Entero Count

Enterococcus (“Entero”) is a fecal indicating bacterium that lives in the intestines of humans and other warm-blooded animals. It is the EPA preferred indicator for sewage contamination.

Quality Rain, day of (in) Prior Day 2 Days Prior 3 Days Prior Rain 4 Days Total Rain
Sort Sort Sort Sort Sort Sort Sort Sort
10/12/2016 10 Acceptable 0.0 0.0 0.0 0.6 0.6
09/13/2016 <10 Acceptable 0.0 0.0 0.0 0.0 0.0
08/14/2016 <10 Acceptable 0.0 0.0 0.3 0.2 0.5
07/12/2016 <10 Acceptable 0.0 0.0 0.0 0.5 0.5
06/14/2016 <10 Acceptable 0.0 0.0 0.0 0.0 0.0
05/19/2016 <10 Acceptable 0.0 0.0 0.0 0.0 0.0
10/11/2015 20 Acceptable 0.0 0.0 0.9 0.0 0.9
09/10/2015 275 Beach Advisory 1.6 0.0 0.0 0.0 1.6
08/11/2015 134 Beach Advisory 1.2 0.0 0.0 0.0 1.2
07/07/2015 <10 Acceptable 0.0 0.0 0.0 0.0 0.0
06/10/2015 <10 Acceptable 0.0 0.0 0.1 0.0 0.1
05/11/2015 <10 Acceptable 0.0 0.0 0.0 0.0 0.0
10/12/2014 <10 Acceptable 0.0 0.3 0.0 0.0 0.3
09/07/2014 <10 Acceptable 0.0 0.1 0.0 0.0 0.1
08/11/2014 31 Acceptable 0.0 0.0 0.0 0.0 0.0
07/07/2014 10 Acceptable 0.0 0.0 0.0 0.1 0.1
06/12/2014 10 Acceptable 0.0 0.0 0.0 1.6 1.6
05/12/2014 41 Acceptable 0.0 0.0 0.4 0.0 0.4
10/16/2013 201 Beach Advisory 0.0 0.0 0.0 0.0 0.0
09/18/2013 41 Acceptable 0.0 0.0 0.0 0.0 0.0
08/14/2013 31 Acceptable 0.0 0.9 0.1 0.0 1.0
07/17/2013 10 Acceptable 0.0 0.0 0.0 0.0 0.0
06/19/2013 41 Acceptable 0.0 0.2 0.0 0.0 0.2
05/31/2013 <10 Acceptable 0.0 0.0 0.0 0.5 0.5
11/08/2012 395 Beach Advisory 0.1 1.1 0.0 0.0 1.2
10/10/2012 <10 Acceptable 0.3 0.0 0.0 0.2 0.5
09/10/2012 10 Acceptable 0.0 0.0 0.4 0.0 0.4
08/13/2012 <10 Acceptable 0.0 0.0 0.0 0.2 0.2
07/16/2012 <10 Acceptable 0.0 0.3 0.0 0.0 0.3
06/11/2012 10 Acceptable 0.0 0.0 0.0 0.0 0.0
05/15/2012 272 Beach Advisory 0.5 0.0 0.0 0.0 0.5
10/21/2011 120 Beach Advisory 0.0 0.0 1.1 0.0 1.1
09/14/2011 135 Beach Advisory 0.0 0.0 0.0 0.0 0.0
08/16/2011 62 Beach Advisory 0.0 0.6 5.8 0.0 6.4
07/25/2011 173 Beach Advisory 0.0 0.0 0.0 0.0 0.0
07/22/2011 98 Beach Advisory 0.0 0.0 0.0 0.0 0.0
07/21/2011 >24196 Beach Advisory 0.0 0.0 0.0 0.1 0.1
07/19/2011 121 Beach Advisory 0.0 0.1 0.0 0.0 0.1
06/27/2011 <10 Acceptable 0.0 0.0 0.0 0.0 0.0
05/16/2011 218 Beach Advisory 0.2 0.9 0.0 0.0 1.1
10/12/2010 110 Beach Advisory 0.1 1.1 0.0 0.0 1.2
09/11/2010 20 Acceptable 0.0 0.0 0.0 0.0 0.0
08/17/2010 <10 Acceptable 0.0 0.1 0.2 0.0 0.3
07/21/2010 <10 Acceptable 0.0 0.0 0.1 0.0 0.1
06/15/2010 86 Beach Advisory 0.0 0.0 0.3 0.0 0.3
05/21/2010 <10 Acceptable 0.0 0.0 0.0 1.1 1.1
10/19/2009 <10 Acceptable 0.0 0.3 0.0 0.1 0.4
09/14/2009 <10 Acceptable 0.0 0.0 0.0 0.8 0.8
08/20/2009 30 Acceptable 0.0 0.0 0.6 0.0 0.6
07/28/2009 52 Acceptable 0.0 0.6 1.4 0.0 2.0
06/22/2009 41 Acceptable 0.0 0.5 0.3 0.0 0.8
06/06/2009 84 Beach Advisory 0.0 0.9 0.5 0.5 1.9
05/12/2009 <10 Acceptable 0.0 0.0 0.0 0.6 0.6
10/20/2008 20 Acceptable 0.0 0.0 0.0 0.0 0.0
09/24/2008 <10 Acceptable 0.0 0.0 0.0 0.0 0.0
08/19/2008 20 Acceptable 0.0 0.0 0.0 0.0 0.0
07/14/2008 20 Acceptable 0.5 0.0 0.0 0.0 0.5
07/02/2008 15 Acceptable 0.0 0.0 0.0 0.6 0.6
05/19/2008 20 Acceptable 0.0 0.1 0.0 0.9 1.0
08/02/2007 88 Beach Advisory 0.0 0.0 0.0 0.0 0.0
08/01/2007 79 Beach Advisory 0.0 0.0 0.0 0.4 0.4
07/26/2007 62 Beach Advisory 0.0 0.0 0.0 2.3 2.3
07/23/2007 136 Beach Advisory 0.0 0.0 0.0 0.0 0.0
07/12/2007 1200 Beach Advisory 0.0 1.0 0.0 0.0 1.0
06/29/2007 139 Beach Advisory 0.0 0.0 0.7 0.0 0.7
06/28/2007 340 Beach Advisory 0.0 0.7 0.0 0.0 0.7
06/27/2007 22 Acceptable 0.0 0.0 0.0 0.0 0.0
06/12/2007 1500 Beach Advisory 0.0 0.0 0.0 0.0 0.0
06/11/2007 99 Beach Advisory 0.0 0.0 0.0 0.0 0.0
06/09/2007 121 Beach Advisory 0.0 0.0 0.0 0.0 0.0
06/08/2007 46 Acceptable 0.0 0.0 0.0 0.0 0.0
06/07/2007 18 Acceptable 0.0 0.0 0.0 2.3 2.3
06/06/2007 72 Beach Advisory 0.0 0.0 2.3 1.6 3.9
06/05/2007 200 Beach Advisory 0.0 2.3 1.6 0.0 3.9
06/04/2007 1500 Beach Advisory 2.3 1.6 0.0 0.0 3.9
06/03/2007 40 Acceptable 0.0 0.0 0.0 0.0 0.0
06/02/2007 18 Acceptable 0.0 0.0 0.0 0.0 0.0
06/01/2007 12 Acceptable 0.0 0.0 0.0 0.0 0.0
05/31/2007 8 Acceptable 0.0 0.0 0.0 0.0 0.0
05/30/2007 21 Acceptable 0.0 0.0 0.0 0.0 0.0
05/29/2007 83 Beach Advisory 0.0 0.0 0.0 0.0 0.0
10/31/2006 147 Beach Advisory 0.0 0.0 0.0 2.2 2.2
10/12/2006 305 Beach Advisory 0.3 1.6 0.0 0.0 1.9
10/11/2006 269 Beach Advisory 1.6 0.0 0.0 0.0 1.6
10/06/2006 824 Beach Advisory 0.0 0.1 0.6 0.0 0.7
10/03/2006 773 Beach Advisory 0.0 0.0 0.4 0.0 0.4
10/02/2006 1433 Beach Advisory 0.0 0.4 0.0 0.1 0.5

Entero Count (fecal indicator) and Rainfall Correlation

87 Samples taken

All Water Quality Parameters

87 Samples taken

Sample Date [i] Entero Count

Entero Count

Enterococcus (“Entero”) is a fecal indicating bacterium that lives in the intestines of humans and other warm-blooded animals. It is the EPA preferred indicator for sewage contamination.

Quality [i] Temp (f)

Temperature

Hudson River water temperature changes seasonally. Surface water temperature can change on small scales in the river reflecting natural and human influences.

[i] Salinity

Salinity

Estuaries like the Hudson are where freshwaters in rivers meet the sea. Salinity tells us about the relative contribution of fresh and salt water within a particular region of the estuary. 

[i] Chlorophyll

Chlorophyll

A measure of the amount of microscopic algae present in the water. High chlorophyll counts can mean high levels of the nutrients phosphorus and nitrogen, and the threat, or presence, of algae blooms.

[i] Turbidity

Turbidity

Turbidity is a measure of the amount of fine particles suspended in the water. As turbidity rises, light penetration, a key factor for aquatic plants and algae, diminishes.

[i] Oxygen

Oxygen

Oxygen concentrations in the water are closely connected to biological activities. Surface waters are typically in equilibrium with the atmosphere such that the oxygen concentration near the surface is close to fully saturated (100%).

Sort Sort Sort Sort Sort Sort Sort Sort
10/12/2016 10 Acceptable
09/13/2016 <10 Acceptable 76.7 14.8 33.3 n/a 125.3
08/14/2016 <10 Acceptable 83.2 12.3 42.3 22.5 166
07/12/2016 <10 Acceptable 77.7 10.7 10.3 8.4 106.4
06/14/2016 <10 Acceptable 68.5 9.4 4.4 24.2 97.9
05/19/2016 <10 Acceptable 59 11.1 1.9 n/a 95.7
10/11/2015 20 Acceptable 65.8 19.2 3.1 51 83
09/10/2015 275 Beach Advisory 77.6 20.5 3.6 14 68
08/11/2015 134 Beach Advisory 75 20.9 3.2 20 74
07/07/2015 <10 Acceptable 75.7 10.3 5.4 19 87
06/10/2015 <10 Acceptable 70 10.4 2.9 8 92
05/11/2015 <10 Acceptable 60 14.5 3.2 37 93
10/12/2014 <10 Acceptable 65 18.6 1.6 19 79
09/07/2014 <10 Acceptable 77.5 12.8 5.8 11 88
08/11/2014 31 Acceptable 76.4 15.3 0.9 36 70
07/07/2014 10 Acceptable 76 9.1 8 13 99
06/12/2014 10 Acceptable 67.5 11.1 30.5 24 113
05/12/2014 41 Acceptable 59.7 5.3 2.5 21 99
10/16/2013 201 Beach Advisory 65.2 20.7 1.2 18 79
09/18/2013 41 Acceptable 68.7 20.5 2 16 71
08/14/2013 31 Acceptable 76 11 5.4 37 93
07/17/2013 10 Acceptable 81.5 8.4 10.5 68 100
06/19/2013 41 Acceptable 70.5 3.9 3.9 18 95
05/31/2013 <10 Acceptable 67.9 6.2 6 75 95
11/08/2012 395 Beach Advisory 51.6 11.5 1 34 90
10/10/2012 <10 Acceptable 66 9.2 8.3 13 94
09/10/2012 10 Acceptable 76.8 12.3 12.7 61 98
08/13/2012 <10 Acceptable 82.6 14.1 12.7 9 151
07/16/2012 <10 Acceptable 82.6 14.3 18.3 67 159
06/11/2012 10 Acceptable 71.1 10.4 6.5 n/a 83
05/15/2012 272 Beach Advisory 62 4.2 3.5 24 97
10/21/2011 120 Beach Advisory 61.8 4.1 1.8 47 91
09/14/2011 135 Beach Advisory 72.1 4.1 1.7 85 79
08/16/2011 62 Beach Advisory 77.8 15.3 1.8 57 69
07/25/2011 173 Beach Advisory 81.6 7.5 18.5 10 141
07/22/2011 98 Beach Advisory 83.8 9.7 30 13 142
07/21/2011 >24196 Beach Advisory n/a n/a n/a n/a n/a
07/19/2011 121 Beach Advisory 80.2 12.4 3.3 13 88
06/27/2011 <10 Acceptable 78 3 11.7 46 104
05/16/2011 218 Beach Advisory 57.9 8.5 2.9 107 85
10/12/2010 110 Beach Advisory 66 7.7 3.6 17 83
09/11/2010 20 Acceptable 72.7 22.7 2.4 60 71
08/17/2010 <10 Acceptable 79.4 16.2 6 6 79
07/21/2010 <10 Acceptable 84.1 12.4 97.7 31 210
06/15/2010 86 Beach Advisory 68.1 18.8 1.7 28 68
05/21/2010 <10 Acceptable 62.2 12.5 2.8 18 89
10/19/2009 <10 Acceptable 57.2 16.9 n/a n/a 86
09/14/2009 <10 Acceptable 74.3 10.5 3.4 29 93
08/20/2009 30 Acceptable 78.5 14.6 1.9 48 66
07/28/2009 52 Acceptable 76.5 12.3 2.4 20 73
06/22/2009 41 Acceptable 70.2 3 1 72 83
06/06/2009 84 Beach Advisory n/a n/a n/a n/a n/a
05/12/2009 <10 Acceptable 60.5 7.5 1.6 35 92
10/20/2008 20 Acceptable 62.1 20.8 1.9 12 82
09/24/2008 <10 Acceptable 71.2 12 3 8 88
08/19/2008 20 Acceptable 75.3 17 1.3 18 74
07/14/2008 20 Acceptable 78.5 10.8 8.1 10 116
07/02/2008 15 Acceptable 77 12.7 7.1 15 98
05/19/2008 20 Acceptable 58.7 9.9 1.2 35 94
08/02/2007 88 Beach Advisory n/a n/a n/a n/a n/a
08/01/2007 79 Beach Advisory n/a n/a n/a n/a n/a
07/26/2007 62 Beach Advisory n/a n/a n/a n/a n/a
07/23/2007 136 Beach Advisory n/a n/a n/a n/a n/a
07/12/2007 1200 Beach Advisory n/a n/a n/a n/a n/a
06/29/2007 139 Beach Advisory n/a n/a n/a n/a n/a
06/28/2007 340 Beach Advisory n/a n/a n/a n/a n/a
06/27/2007 22 Acceptable n/a n/a n/a n/a n/a
06/12/2007 1500 Beach Advisory n/a n/a n/a n/a n/a
06/11/2007 99 Beach Advisory n/a n/a n/a n/a n/a
06/09/2007 121 Beach Advisory n/a n/a n/a n/a n/a
06/08/2007 46 Acceptable n/a n/a n/a n/a n/a
06/07/2007 18 Acceptable n/a n/a n/a n/a n/a
06/06/2007 72 Beach Advisory n/a n/a n/a n/a n/a
06/05/2007 200 Beach Advisory n/a n/a n/a n/a n/a
06/04/2007 1500 Beach Advisory n/a n/a n/a n/a n/a
06/03/2007 40 Acceptable n/a n/a n/a n/a n/a
06/02/2007 18 Acceptable n/a n/a n/a n/a n/a
06/01/2007 12 Acceptable n/a n/a n/a n/a n/a
05/31/2007 8 Acceptable n/a n/a n/a n/a n/a
05/30/2007 21 Acceptable n/a n/a n/a n/a n/a
05/29/2007 83 Beach Advisory n/a n/a n/a n/a n/a
10/31/2006 147 Beach Advisory n/a n/a n/a n/a n/a
10/12/2006 305 Beach Advisory n/a n/a n/a n/a n/a
10/11/2006 269 Beach Advisory n/a n/a n/a n/a n/a
10/06/2006 824 Beach Advisory n/a n/a n/a n/a n/a
10/03/2006 773 Beach Advisory n/a n/a n/a n/a n/a
10/02/2006 1433 Beach Advisory n/a n/a n/a n/a n/a

Water Quality*

Acceptable (0–60) Beach Advisory (61+)

*Single sample thresholds;
Enterococcus count per 100mL

Prior Four Day Rainfall
(in inches)

Dry Weather (0–0.25) Wet Weather (0.25+)

Enterococcus is an EPA-approved fecal contamination indicator.

Samples taken by Riverkeeper, Lamont-Doherty Earth Observatory and CUNY Queens College staff, and processed on the Riverkeeper vessel, according to the 2014 Quality Assurance Project Plan.

Rainfall data comes from wunderground.com. Wet weather is a common trigger of fecal contamination.

What do the Numbers Mean?

Water Quality scoring is based on the 2012 Recreational Water Quality Criteria from the US Environmental Protection Agency (EPA) for safe swimming. Learn More

About this location:

Manhattan, NY
The Pier at 125th St. is a new access point for recreational and subsistence fishing. There is a New York City combined sewer overflow (CSO) immediately to the south.

Agencies Responsible:

NYCDEP: 212-639-9675 and NYSDEC Region 2: 718-482-4933

2017 Fishermen's Ball
Become a Member